Time;durP1;ratioP1;P1;durP2;ratioP2;P2;SDS_P1;SDS_P2;PMS_P1;PMS_P2;Temp;Humidity;BMP_temperature;BMP_pressure;BME280_temperature;BME280_humidity;BME280_pressure;Samples;Min_cycle;Max_cycle;Signal;HPM_P1;HPM_P2
2024/01/04 00:00:14;;;;;;;31.08;19.90;;;10.00;93.80;;;;;;5041373;28;20051;-78
2024/01/04 00:02:43;;;;;;;34.00;18.80;;;9.90;93.70;;;;;;5052507;28;20518;-76
2024/01/04 00:05:08;;;;;;;28.60;14.02;;;9.90;93.70;;;;;;5054432;28;20037;-78
2024/01/04 00:07:34;;;;;;;19.58;8.63;;;9.90;93.80;;;;;;5048298;28;20164;-76
2024/01/04 00:10:00;;;;;;;17.42;4.93;;;9.90;93.70;;;;;;5040801;28;20326;-77
2024/01/04 00:12:25;;;;;;;14.40;5.35;;;9.90;93.70;;;;;;5054597;28;20074;-78
2024/01/04 00:14:51;;;;;;;16.40;4.85;;;9.80;93.70;;;;;;5058225;28;20033;-77
2024/01/04 00:17:17;;;;;;;21.40;5.32;;;9.80;93.90;;;;;;5057208;28;20023;-76
2024/01/04 00:19:43;;;;;;;14.20;4.85;;;9.80;93.70;;;;;;5055994;28;20040;-78
2024/01/04 00:22:08;;;;;;;18.23;5.45;;;9.80;93.80;;;;;;5038841;28;20056;-78
2024/01/04 00:24:34;;;;;;;19.33;5.60;;;9.80;93.80;;;;;;5051915;28;20029;-76
2024/01/04 00:27:00;;;;;;;13.52;4.90;;;9.70;93.90;;;;;;5059768;28;20112;-77
2024/01/04 00:29:25;;;;;;;14.10;4.57;;;9.70;94.00;;;;;;5041040;28;20036;-77
2024/01/04 00:31:51;;;;;;;17.42;5.20;;;9.70;93.90;;;;;;5060258;28;20082;-76
2024/01/04 00:34:16;;;;;;;20.52;5.40;;;9.70;93.90;;;;;;5054186;28;20041;-76
2024/01/04 00:36:42;;;;;;;16.90;5.05;;;9.70;93.90;;;;;;5052412;28;20036;-77
2024/01/04 00:39:08;;;;;;;24.90;5.82;;;9.80;93.80;;;;;;5043947;28;20086;-76
2024/01/04 00:41:34;;;;;;;18.00;4.95;;;9.70;93.80;;;;;;5058942;28;20461;-78
2024/01/04 00:43:59;;;;;;;14.88;5.25;;;9.80;93.80;;;;;;5059352;28;20043;-78
2024/01/04 00:46:25;;;;;;;17.23;5.03;;;9.70;93.70;;;;;;5061160;28;20074;-76
2024/01/04 00:48:50;;;;;;;18.35;5.40;;;9.70;93.70;;;;;;5057650;28;20035;-77
2024/01/04 00:51:16;;;;;;;17.13;5.53;;;9.80;93.50;;;;;;5056061;28;20434;-77
2024/01/04 00:53:43;;;;;;;12.90;5.15;;;9.80;93.60;;;;;;5061718;28;20106;-76
2024/01/04 00:56:09;;;;;;;16.38;5.05;;;9.80;93.60;;;;;;5054160;28;20028;-77
2024/01/04 00:58:34;;;;;;;19.42;5.32;;;9.80;93.50;;;;;;5058716;28;20051;-77
2024/01/04 01:01:03;;;;;;;19.42;6.10;;;9.80;93.50;;;;;;5055524;28;20021;-77
2024/01/04 01:03:29;;;;;;;14.02;4.63;;;9.80;93.50;;;;;;5059726;28;20029;-77
2024/01/04 01:05:56;;;;;;;14.77;4.70;;;9.80;93.50;;;;;;5043071;28;20019;-76
2024/01/04 01:08:21;;;;;;;15.30;5.57;;;9.80;93.50;;;;;;5052318;28;20510;-76
2024/01/04 01:10:47;;;;;;;13.65;5.22;;;9.80;93.60;;;;;;5037058;28;20380;-77
2024/01/04 01:13:20;;;;;;;13.63;5.30;;;9.70;93.60;;;;;;5052373;28;20083;-76
2024/01/04 01:15:46;;;;;;;13.13;4.80;;;9.80;93.70;;;;;;5055767;28;20040;-77
2024/01/04 01:18:12;;;;;;;15.52;4.85;;;9.80;93.60;;;;;;5038333;28;20502;-77
2024/01/04 01:20:37;;;;;;;15.43;5.03;;;9.80;93.60;;;;;;5054466;28;20020;-76
2024/01/04 01:23:03;;;;;;;15.02;4.38;;;9.80;93.60;;;;;;5035658;28;20737;-76
2024/01/04 01:25:29;;;;;;;16.33;5.07;;;9.80;93.60;;;;;;5058659;28;20073;-77
2024/01/04 01:27:54;;;;;;;16.75;4.88;;;9.80;93.60;;;;;;5043279;28;20385;-76
2024/01/04 01:30:20;;;;;;;12.10;4.88;;;9.80;93.60;;;;;;5057938;28;20025;-77
2024/01/04 01:32:45;;;;;;;14.68;4.68;;;9.80;93.60;;;;;;5060016;28;20077;-76
2024/01/04 01:35:12;;;;;;;11.98;4.65;;;9.80;93.60;;;;;;5058157;28;20485;-76
2024/01/04 01:37:38;;;;;;;13.50;4.68;;;9.80;93.60;;;;;;5039278;28;20033;-77
2024/01/04 01:40:05;;;;;;;14.05;4.35;;;9.80;93.50;;;;;;5059127;28;20066;-76
2024/01/04 01:42:31;;;;;;;15.82;4.53;;;9.80;93.50;;;;;;5061178;28;20044;-78
2024/01/04 01:44:56;;;;;;;13.93;4.25;;;9.80;93.30;;;;;;5069058;28;20017;-79
2024/01/04 01:47:24;;;;;;;15.23;4.93;;;9.80;93.30;;;;;;5077125;28;20051;-78
2024/01/04 01:49:50;;;;;;;11.05;4.45;;;9.80;93.30;;;;;;5055368;28;20520;-76
2024/01/04 01:52:16;;;;;;;10.90;3.70;;;9.90;93.20;;;;;;5054100;28;20024;-78
2024/01/04 01:54:42;;;;;;;13.68;4.50;;;9.90;93.30;;;;;;5039631;28;20024;-78
2024/01/04 01:57:08;;;;;;;14.82;4.15;;;9.90;93.20;;;;;;5048386;28;20530;-76
2024/01/04 01:59:34;;;;;;;10.52;3.53;;;9.80;93.20;;;;;;5040460;28;20024;-76
2024/01/04 02:02:00;;;;;;;14.15;4.40;;;9.80;93.20;;;;;;5054473;28;20158;-76
2024/01/04 02:04:26;;;;;;;15.27;5.50;;;9.80;93.30;;;;;;5041145;28;20806;-77
2024/01/04 02:06:52;;;;;;;11.93;5.03;;;9.80;93.20;;;;;;5037447;28;20039;-76
2024/01/04 02:09:17;;;;;;;18.10;4.85;;;9.80;93.20;;;;;;5052459;28;20498;-76
2024/01/04 02:11:45;;;;;;;12.35;3.90;;;9.80;93.20;;;;;;5033898;28;20017;-77
2024/01/04 02:14:10;;;;;;;9.90;3.10;;;9.80;93.10;;;;;;5059965;28;20048;-77
2024/01/04 02:16:36;;;;;;;10.23;3.75;;;9.90;93.20;;;;;;5060200;28;20047;-76
2024/01/04 02:19:07;;;;;;;13.30;3.72;;;9.80;93.10;;;;;;5057704;28;20529;-76
2024/01/04 02:21:37;;;;;;;16.92;3.53;;;9.80;93.00;;;;;;5058478;28;20024;-77
2024/01/04 02:24:03;;;;;;;10.95;3.47;;;9.80;93.00;;;;;;5055435;28;20079;-75
2024/01/04 02:26:29;;;;;;;12.52;3.50;;;9.80;93.00;;;;;;5053512;28;20025;-76
2024/01/04 02:28:55;;;;;;;8.68;3.17;;;9.80;92.90;;;;;;5054441;28;20629;-77
2024/01/04 02:31:20;;;;;;;13.48;4.03;;;9.80;93.00;;;;;;5055981;28;20027;-77
2024/01/04 02:33:46;;;;;;;11.75;4.65;;;9.80;92.80;;;;;;5054103;28;20477;-77
2024/01/04 02:36:11;;;;;;;13.73;4.32;;;9.80;92.80;;;;;;5040270;28;20028;-77
2024/01/04 02:38:37;;;;;;;13.38;4.72;;;9.80;93.00;;;;;;5052392;28;20030;-77
2024/01/04 02:41:03;;;;;;;15.60;4.63;;;9.80;93.00;;;;;;5034941;28;20031;-78
2024/01/04 02:43:28;;;;;;;13.07;3.58;;;9.80;93.00;;;;;;5035171;28;20250;-79
2024/01/04 02:45:54;;;;;;;10.85;4.43;;;9.80;92.90;;;;;;5054743;28;20024;-77
2024/01/04 02:48:20;;;;;;;13.35;4.05;;;9.80;92.80;;;;;;5051512;28;20107;-77
2024/01/04 02:50:45;;;;;;;12.82;4.85;;;9.80;92.90;;;;;;5056965;28;20412;-76
2024/01/04 02:53:11;;;;;;;16.15;5.00;;;9.80;92.80;;;;;;5052322;28;20033;-75
2024/01/04 02:55:37;;;;;;;12.20;3.58;;;9.80;92.70;;;;;;5032862;28;20128;-75
2024/01/04 02:58:02;;;;;;;10.05;4.30;;;9.80;92.70;;;;;;5051131;28;20492;-79
2024/01/04 03:00:28;;;;;;;12.73;4.93;;;9.80;92.60;;;;;;5055085;28;20497;-79
2024/01/04 03:02:53;;;;;;;12.60;4.07;;;9.80;92.50;;;;;;5054967;28;20457;-79
2024/01/04 03:05:19;;;;;;;12.13;4.32;;;9.80;92.50;;;;;;5058611;28;20036;-77
2024/01/04 03:07:45;;;;;;;13.25;3.95;;;9.80;92.10;;;;;;5052809;28;20017;-78
2024/01/04 03:10:10;;;;;;;14.88;3.72;;;9.80;92.10;;;;;;5051116;28;20020;-78
2024/01/04 03:12:39;;;;;;;14.48;3.60;;;9.80;92.00;;;;;;5050598;28;20025;-79
2024/01/04 03:15:08;;;;;;;12.02;3.53;;;9.80;92.10;;;;;;5034048;28;20090;-77
2024/01/04 03:17:33;;;;;;;12.27;4.10;;;9.80;91.90;;;;;;5034672;28;20040;-77
2024/01/04 03:19:59;;;;;;;10.80;3.70;;;9.80;91.80;;;;;;5050806;28;20037;-76
2024/01/04 03:22:25;;;;;;;13.52;3.90;;;9.80;91.80;;;;;;5053940;28;20501;-76
2024/01/04 03:24:50;;;;;;;11.80;3.95;;;9.80;91.80;;;;;;5037576;28;20028;-78
2024/01/04 03:27:16;;;;;;;11.15;3.33;;;9.80;91.80;;;;;;5049977;28;20564;-77
2024/01/04 03:29:42;;;;;;;12.57;3.40;;;9.80;91.50;;;;;;5034787;28;20090;-76
2024/01/04 03:32:08;;;;;;;10.23;3.45;;;9.90;91.40;;;;;;5036554;28;20035;-77
2024/01/04 03:34:34;;;;;;;10.50;3.95;;;9.80;91.40;;;;;;5056660;28;20385;-77
2024/01/04 03:36:59;;;;;;;10.48;3.45;;;9.90;91.40;;;;;;5050186;28;20393;-78
2024/01/04 03:39:25;;;;;;;10.35;3.40;;;9.80;91.40;;;;;;5036607;28;20109;-76
2024/01/04 03:41:51;;;;;;;16.33;3.33;;;9.90;91.60;;;;;;5031613;28;20020;-77
2024/01/04 03:44:16;;;;;;;13.57;3.35;;;9.90;91.70;;;;;;5038241;28;20050;-77
2024/01/04 03:46:42;;;;;;;11.90;2.85;;;9.90;92.00;;;;;;5038696;28;20027;-76
2024/01/04 03:49:08;;;;;;;12.88;2.85;;;9.90;92.00;;;;;;5039054;28;20112;-76
2024/01/04 03:51:33;;;;;;;9.63;3.00;;;9.90;91.90;;;;;;5056770;28;20442;-76
2024/01/04 03:53:59;;;;;;;13.18;2.97;;;9.90;92.20;;;;;;5054962;28;20123;-76
2024/01/04 03:56:25;;;;;;;11.00;3.35;;;9.80;92.30;;;;;;5031770;28;20067;-78
2024/01/04 03:58:51;;;;;;;10.95;2.95;;;9.90;92.50;;;;;;5058800;28;20139;-77
2024/01/04 04:01:17;;;;;;;11.73;3.22;;;9.80;92.40;;;;;;5055263;28;20596;-77
2024/01/04 04:03:42;;;;;;;12.25;3.03;;;9.80;92.50;;;;;;5043496;28;20601;-78
2024/01/04 04:06:08;;;;;;;10.48;2.97;;;9.90;92.50;;;;;;5062502;28;20031;-76
2024/01/04 04:08:35;;;;;;;12.07;3.25;;;9.80;92.40;;;;;;5042430;28;20035;-77
2024/01/04 04:11:00;;;;;;;12.55;3.17;;;9.80;92.50;;;;;;5057405;28;20653;-77
2024/01/04 04:13:26;;;;;;;13.32;2.83;;;9.80;92.60;;;;;;5055853;28;20044;-77
2024/01/04 04:15:52;;;;;;;11.18;3.00;;;9.80;92.60;;;;;;5055810;28;20045;-78
2024/01/04 04:18:17;;;;;;;9.38;2.83;;;9.70;92.60;;;;;;5043549;28;20059;-77
2024/01/04 04:20:43;;;;;;;8.90;2.72;;;9.80;92.50;;;;;;5059160;28;20033;-77
2024/01/04 04:23:08;;;;;;;8.15;2.60;;;9.70;92.50;;;;;;5034916;28;20147;-77
2024/01/04 04:25:36;;;;;;;9.57;2.40;;;9.80;92.40;;;;;;5057622;28;20021;-77
2024/01/04 04:28:02;;;;;;;7.57;2.20;;;9.80;92.20;;;;;;5051499;28;20056;-77
2024/01/04 04:30:29;;;;;;;8.02;2.25;;;9.80;92.20;;;;;;5042984;28;20028;-76
2024/01/04 04:32:55;;;;;;;9.55;2.25;;;9.80;92.10;;;;;;5039431;28;20033;-76
2024/01/04 04:35:20;;;;;;;6.97;2.10;;;9.80;92.10;;;;;;5055716;28;20430;-79
2024/01/04 04:37:46;;;;;;;12.25;2.30;;;9.80;92.10;;;;;;5054014;28;20041;-76
2024/01/04 04:40:12;;;;;;;10.10;2.58;;;9.80;92.30;;;;;;5053096;28;20033;-77
2024/01/04 04:42:37;;;;;;;13.40;2.80;;;9.80;92.40;;;;;;5040115;28;20039;-77
2024/01/04 04:45:04;;;;;;;9.38;2.25;;;9.80;92.40;;;;;;5060607;28;20028;-77
2024/01/04 04:47:30;;;;;;;9.90;2.60;;;9.90;92.50;;;;;;5040712;28;20604;-77
2024/01/04 04:49:56;;;;;;;11.05;2.65;;;9.80;92.60;;;;;;5058938;28;20024;-77
2024/01/04 04:52:21;;;;;;;9.68;2.72;;;9.80;92.80;;;;;;5055408;28;20021;-78
2024/01/04 04:54:47;;;;;;;11.55;2.75;;;9.80;93.00;;;;;;5040564;28;20036;-77
2024/01/04 04:57:13;;;;;;;10.90;3.08;;;9.80;92.90;;;;;;5044006;28;20437;-76
2024/01/04 04:59:38;;;;;;;16.23;3.00;;;9.80;92.80;;;;;;5038104;28;20429;-77
2024/01/04 05:02:04;;;;;;;14.65;2.97;;;9.80;92.90;;;;;;5050288;28;20067;-78
2024/01/04 05:04:30;;;;;;;11.43;2.47;;;9.80;92.80;;;;;;5056121;28;20047;-77
2024/01/04 05:06:55;;;;;;;11.45;3.08;;;9.80;92.80;;;;;;5059776;28;20091;-76
2024/01/04 05:09:21;;;;;;;15.15;2.67;;;9.80;92.80;;;;;;5056444;28;20124;-78
2024/01/04 05:11:47;;;;;;;13.90;2.90;;;9.80;92.80;;;;;;5037434;28;20020;-77
2024/01/04 05:14:12;;;;;;;8.93;2.65;;;9.80;92.90;;;;;;5055551;28;20098;-77
2024/01/04 05:16:38;;;;;;;10.45;2.90;;;9.80;92.90;;;;;;5041356;28;20045;-77
2024/01/04 05:19:07;;;;;;;9.50;2.42;;;9.80;92.80;;;;;;5055796;28;20036;-77
2024/01/04 05:21:33;;;;;;;7.43;2.38;;;9.80;92.80;;;;;;5057055;28;20017;-78
2024/01/04 05:23:59;;;;;;;11.98;2.42;;;9.80;92.70;;;;;;5055053;28;20279;-77
2024/01/04 05:26:25;;;;;;;9.70;2.95;;;9.80;92.80;;;;;;5041943;28;20039;-77
2024/01/04 05:28:50;;;;;;;11.63;2.40;;;9.80;92.80;;;;;;5038242;28;20116;-77
2024/01/04 05:31:19;;;;;;;10.02;2.47;;;9.70;92.80;;;;;;5057694;28;20032;-77
2024/01/04 05:33:46;;;;;;;13.30;3.08;;;9.70;92.90;;;;;;5039005;28;20053;-77
2024/01/04 05:36:12;;;;;;;9.65;2.25;;;9.70;92.70;;;;;;5052580;28;20045;-79
2024/01/04 05:38:38;;;;;;;10.23;2.58;;;9.70;92.70;;;;;;5056834;28;20029;-76
2024/01/04 05:41:06;;;;;;;9.13;2.60;;;9.60;92.90;;;;;;5043647;28;20028;-77
2024/01/04 05:43:33;;;;;;;10.50;3.33;;;9.70;93.00;;;;;;5058725;28;20116;-78
2024/01/04 05:46:01;;;;;;;13.63;3.17;;;9.70;93.00;;;;;;5041888;28;20070;-77
2024/01/04 05:48:27;;;;;;;15.70;3.67;;;9.70;93.00;;;;;;5051171;28;20075;-77
2024/01/04 05:50:53;;;;;;;12.10;3.00;;;9.70;92.90;;;;;;5058906;28;20021;-77
2024/01/04 05:53:19;;;;;;;11.88;2.78;;;9.70;92.90;;;;;;5045787;28;20782;-77
2024/01/04 05:55:44;;;;;;;12.25;3.45;;;9.70;92.90;;;;;;5054879;28;20040;-77
2024/01/04 05:58:10;;;;;;;17.20;3.45;;;9.70;93.00;;;;;;5033611;28;20747;-77
2024/01/04 06:00:36;;;;;;;10.75;2.95;;;9.70;93.00;;;;;;5039367;28;20426;-77
2024/01/04 06:03:01;;;;;;;14.65;3.33;;;9.70;92.90;;;;;;5057592;28;20115;-77
2024/01/04 06:05:27;;;;;;;14.23;4.00;;;9.70;92.90;;;;;;5043101;28;20100;-77
2024/01/04 06:07:52;;;;;;;13.57;3.63;;;9.70;93.00;;;;;;5050866;28;20040;-77
2024/01/04 06:10:18;;;;;;;13.43;3.58;;;9.70;93.30;;;;;;5043246;28;20025;-76
2024/01/04 06:12:44;;;;;;;13.73;4.25;;;9.60;93.60;;;;;;5051174;28;20025;-76
2024/01/04 06:15:10;;;;;;;17.00;4.43;;;9.60;94.00;;;;;;5055468;28;20138;-78
2024/01/04 06:17:36;;;;;;;14.32;4.43;;;9.50;94.30;;;;;;5054250;28;20033;-78
2024/01/04 06:20:02;;;;;;;15.13;4.88;;;9.50;94.70;;;;;;5050916;28;20024;-79
2024/01/04 06:22:28;;;;;;;16.02;5.30;;;9.50;94.60;;;;;;5030629;28;20017;-77
2024/01/04 06:24:53;;;;;;;13.82;4.03;;;9.30;94.80;;;;;;5039358;28;20033;-77
2024/01/04 06:27:19;;;;;;;13.25;4.18;;;9.30;95.00;;;;;;5052287;28;20364;-77
2024/01/04 06:29:45;;;;;;;16.98;5.07;;;9.30;95.10;;;;;;5057363;28;20531;-79
2024/01/04 06:32:10;;;;;;;14.90;5.07;;;9.30;95.10;;;;;;5045886;28;20058;-77
2024/01/04 06:34:36;;;;;;;20.73;5.53;;;9.30;95.20;;;;;;5054474;28;20032;-77
2024/01/04 06:37:02;;;;;;;14.40;4.63;;;9.30;95.30;;;;;;5052917;28;20157;-78
2024/01/04 06:39:28;;;;;;;13.70;3.38;;;9.20;95.40;;;;;;5042051;28;20068;-77
2024/01/04 06:41:54;;;;;;;14.70;3.95;;;9.40;95.40;;;;;;5079354;28;20043;-79
2024/01/04 06:44:20;;;;;;;17.85;4.20;;;9.30;95.20;;;;;;5059271;28;20492;-79
2024/01/04 06:46:45;;;;;;;12.70;3.50;;;9.30;95.20;;;;;;5080951;28;20029;-79
2024/01/04 06:49:11;;;;;;;18.05;4.32;;;9.30;95.10;;;;;;5035964;28;20071;-76
2024/01/04 06:51:36;;;;;;;15.35;3.60;;;9.30;95.10;;;;;;5050401;28;20023;-77
2024/01/04 06:54:02;;;;;;;15.57;3.55;;;9.30;95.20;;;;;;5051999;28;20036;-77
2024/01/04 06:56:28;;;;;;;15.88;3.53;;;9.40;95.10;;;;;;5037950;28;20466;-76
2024/01/04 06:58:55;;;;;;;19.23;4.60;;;9.30;95.10;;;;;;5051580;28;20028;-78
2024/01/04 07:01:20;;;;;;;16.20;4.40;;;9.30;95.10;;;;;;5039632;28;20056;-77
2024/01/04 07:03:46;;;;;;;18.00;3.47;;;9.30;95.20;;;;;;5028187;28;20136;-76
2024/01/04 07:06:13;;;;;;;24.45;4.57;;;9.30;95.10;;;;;;5052428;28;20472;-79
2024/01/04 07:08:39;;;;;;;18.35;3.72;;;9.30;95.00;;;;;;5053744;28;20098;-76
2024/01/04 07:11:05;;;;;;;17.15;4.18;;;9.30;94.90;;;;;;5052922;28;20377;-78
2024/01/04 07:13:33;;;;;;;25.23;4.80;;;9.30;94.80;;;;;;5037397;28;20067;-76
2024/01/04 07:15:59;;;;;;;23.60;4.93;;;9.30;94.60;;;;;;5053206;28;20115;-76
2024/01/04 07:18:24;;;;;;;19.55;4.35;;;9.40;94.40;;;;;;5035567;28;20132;-77
2024/01/04 07:20:50;;;;;;;23.17;4.25;;;9.40;94.30;;;;;;5040127;28;20236;-77
2024/01/04 07:23:17;;;;;;;22.60;4.53;;;9.40;94.00;;;;;;5052091;28;20473;-76
2024/01/04 07:25:43;;;;;;;19.13;5.10;;;9.50;93.90;;;;;;5055872;28;20028;-78
2024/01/04 07:28:08;;;;;;;19.80;4.63;;;9.40;93.90;;;;;;5051478;28;20339;-79
2024/01/04 07:30:35;;;;;;;23.63;4.75;;;9.40;93.70;;;;;;5056717;28;20036;-77
2024/01/04 07:33:00;;;;;;;24.40;6.10;;;9.40;93.50;;;;;;5053816;28;20237;-79
2024/01/04 07:35:26;;;;;;;26.30;4.55;;;9.40;93.30;;;;;;5054727;28;20116;-78
2024/01/04 07:37:52;;;;;;;25.95;6.35;;;9.40;93.30;;;;;;5046119;28;20351;-76
2024/01/04 07:40:17;;;;;;;20.75;4.53;;;9.40;93.30;;;;;;5053879;28;20031;-75
2024/01/04 07:42:43;;;;;;;23.58;5.35;;;9.40;93.20;;;;;;5055808;28;20469;-75
2024/01/04 07:45:09;;;;;;;23.00;5.07;;;9.40;93.20;;;;;;5041528;28;20457;-72
2024/01/04 07:47:37;;;;;;;28.23;5.10;;;9.40;93.20;;;;;;5052029;28;20029;-73
2024/01/04 07:50:06;;;;;;;30.70;5.32;;;9.40;93.00;;;;;;5030788;28;20096;-75
2024/01/04 07:52:32;;;;;;;23.70;5.05;;;9.40;92.80;;;;;;5033607;28;20028;-75
2024/01/04 07:54:58;;;;;;;22.42;5.05;;;9.40;92.50;;;;;;5035646;28;20564;-75
2024/01/04 07:57:24;;;;;;;20.02;5.43;;;9.40;92.50;;;;;;5040563;28;20072;-73
2024/01/04 07:59:49;;;;;;;23.73;5.45;;;9.40;92.50;;;;;;5049232;28;20017;-75
2024/01/04 08:02:16;;;;;;;25.88;5.40;;;9.40;92.50;;;;;;5056249;28;20028;-74
2024/01/04 08:04:41;;;;;;;21.70;5.25;;;9.40;92.50;;;;;;5037373;28;20892;-76
2024/01/04 08:07:07;;;;;;;26.80;5.80;;;9.40;92.40;;;;;;5038954;28;20452;-72
2024/01/04 08:09:33;;;;;;;29.15;5.18;;;9.30;92.20;;;;;;5047959;28;20469;-75
2024/01/04 08:11:58;;;;;;;28.50;6.40;;;9.30;92.00;;;;;;5042228;28;20020;-75
2024/01/04 08:14:24;;;;;;;29.92;6.72;;;9.20;91.90;;;;;;5051341;28;20043;-76
2024/01/04 08:16:50;;;;;;;29.83;7.07;;;9.30;92.00;;;;;;5051384;28;20053;-75
2024/01/04 08:19:15;;;;;;;25.02;6.10;;;9.20;92.00;;;;;;5052639;28;20075;-75
2024/01/04 08:21:41;;;;;;;29.67;6.40;;;9.20;91.90;;;;;;5055967;28;20020;-75
2024/01/04 08:24:06;;;;;;;30.20;6.45;;;9.30;91.90;;;;;;5035333;28;20292;-76
2024/01/04 08:26:32;;;;;;;39.35;8.10;;;9.20;91.90;;;;;;5057231;28;20468;-75
2024/01/04 08:28:58;;;;;;;23.23;6.57;;;9.20;91.70;;;;;;5056208;28;20750;-74
2024/01/04 08:31:23;;;;;;;32.80;7.07;;;9.20;91.80;;;;;;5038224;28;20016;-75
2024/01/04 08:33:49;;;;;;;26.80;6.97;;;9.10;91.70;;;;;;5048494;28;20040;-75
2024/01/04 08:36:14;;;;;;;29.30;6.95;;;9.10;91.80;;;;;;5055480;28;20031;-76
2024/01/04 08:38:40;;;;;;;25.52;6.72;;;9.10;91.90;;;;;;5055311;28;20575;-75
2024/01/04 08:41:06;;;;;;;30.58;6.22;;;9.10;92.10;;;;;;5046187;28;20033;-75
2024/01/04 08:43:31;;;;;;;26.13;6.22;;;9.00;92.10;;;;;;5044321;28;20369;-75
2024/01/04 08:45:57;;;;;;;27.67;5.90;;;9.10;92.10;;;;;;5058790;28;20103;-75
2024/01/04 08:48:23;;;;;;;22.30;5.68;;;9.10;92.10;;;;;;5022078;28;20591;-74
2024/01/04 08:50:49;;;;;;;21.60;5.15;;;9.10;91.90;;;;;;5035632;28;20111;-75
2024/01/04 08:53:20;;;;;;;21.17;5.70;;;9.20;91.80;;;;;;5058919;28;20029;-75
2024/01/04 08:55:47;;;;;;;25.98;5.97;;;9.20;91.70;;;;;;5076691;28;20511;-75
2024/01/04 08:58:13;;;;;;;23.80;6.05;;;9.30;91.40;;;;;;5063347;28;20040;-75
2024/01/04 09:00:39;;;;;;;22.75;5.63;;;9.30;91.20;;;;;;5052850;28;20116;-75
2024/01/04 09:03:04;;;;;;;29.92;6.32;;;9.40;91.10;;;;;;5049825;28;20119;-74
2024/01/04 09:05:30;;;;;;;34.28;6.72;;;9.40;91.00;;;;;;5060929;28;20020;-75
2024/01/04 09:07:56;;;;;;;26.65;5.60;;;9.40;91.00;;;;;;5052819;28;20036;-75
2024/01/04 09:10:21;;;;;;;19.70;5.28;;;9.40;90.80;;;;;;5052740;28;20025;-74
2024/01/04 09:12:47;;;;;;;24.67;6.40;;;9.40;90.90;;;;;;5056948;28;20226;-76
2024/01/04 09:15:13;;;;;;;26.48;6.35;;;9.40;90.70;;;;;;5055966;28;20463;-74
2024/01/04 09:17:42;;;;;;;22.38;6.13;;;9.40;90.80;;;;;;5039296;28;20473;-75
2024/01/04 09:20:08;;;;;;;24.13;5.47;;;9.40;91.00;;;;;;5057400;28;20021;-74
2024/01/04 09:22:34;;;;;;;21.45;5.50;;;9.50;90.90;;;;;;5055592;28;20048;-75
2024/01/04 09:24:59;;;;;;;27.27;5.50;;;9.50;90.60;;;;;;5057147;28;20025;-74
2024/01/04 09:27:25;;;;;;;28.05;5.57;;;9.60;90.60;;;;;;5055173;28;20017;-75
2024/01/04 09:29:52;;;;;;;26.00;6.03;;;9.60;90.60;;;;;;5051719;28;20048;-74
2024/01/04 09:32:18;;;;;;;24.60;5.97;;;9.60;90.10;;;;;;5052038;28;20025;-73
2024/01/04 09:34:43;;;;;;;19.13;4.97;;;9.60;90.40;;;;;;5054513;28;20033;-74
2024/01/04 09:37:09;;;;;;;24.27;5.57;;;9.60;90.30;;;;;;5051575;28;20051;-76
2024/01/04 09:39:35;;;;;;;19.45;4.43;;;9.60;90.20;;;;;;5054287;28;20459;-74
2024/01/04 09:42:03;;;;;;;22.17;5.43;;;9.70;90.10;;;;;;5062254;28;20043;-73
2024/01/04 09:44:32;;;;;;;22.33;5.07;;;9.70;90.00;;;;;;5052871;28;20256;-75
2024/01/04 09:47:03;;;;;;;25.38;5.53;;;9.80;90.00;;;;;;5060663;28;20021;-74
2024/01/04 09:49:30;;;;;;;20.33;4.97;;;9.90;89.70;;;;;;5038969;28;20050;-75
2024/01/04 09:51:55;;;;;;;24.58;5.72;;;10.00;89.30;;;;;;5055657;28;20070;-76
2024/01/04 09:54:22;;;;;;;27.45;6.60;;;10.10;89.30;;;;;;5050208;28;20040;-74
2024/01/04 09:56:50;;;;;;;23.92;6.45;;;10.10;88.70;;;;;;5054253;28;20317;-73
2024/01/04 09:59:16;;;;;;;26.23;7.40;;;10.20;88.60;;;;;;5054063;28;20083;-75
2024/01/04 10:01:43;;;;;;;21.45;6.47;;;10.30;88.60;;;;;;5037066;28;20027;-74
2024/01/04 10:04:13;;;;;;;25.23;5.38;;;10.30;88.60;;;;;;5034229;28;20039;-74
2024/01/04 10:06:53;;;;;;;23.83;6.53;;;10.40;88.30;;;;;;5032342;28;20405;-74
2024/01/04 10:09:24;;;;;;;22.80;6.18;;;10.50;87.90;;;;;;5049426;28;20033;-73
2024/01/04 10:12:05;;;;;;;20.73;6.38;;;10.60;87.80;;;;;;5056496;28;20020;-75
2024/01/04 10:14:32;;;;;;;24.52;6.25;;;10.60;87.60;;;;;;5049620;28;20409;-74
2024/01/04 10:16:59;;;;;;;22.73;6.18;;;10.50;87.30;;;;;;5054121;28;20374;-74
2024/01/04 10:19:28;;;;;;;23.63;4.95;;;10.50;87.90;;;;;;5050541;28;20036;-73
2024/01/04 10:22:03;;;;;;;22.25;6.25;;;10.60;87.60;;;;;;5047505;28;20457;-73
2024/01/04 10:24:31;;;;;;;23.58;5.47;;;10.60;86.90;;;;;;5049072;28;20037;-76
2024/01/04 10:26:59;;;;;;;24.45;6.32;;;10.40;87.20;;;;;;5052441;28;20025;-73
2024/01/04 10:29:26;;;;;;;25.88;6.35;;;10.40;87.60;;;;;;5047886;28;20051;-74
2024/01/04 10:32:08;;;;;;;18.80;5.10;;;10.50;87.90;;;;;;5047654;28;20036;-73
2024/01/04 10:34:34;;;;;;;21.13;5.90;;;10.60;87.90;;;;;;5037882;28;20135;-73
2024/01/04 10:37:08;;;;;;;26.27;6.13;;;10.70;87.50;;;;;;5047672;28;20036;-74
2024/01/04 10:39:34;;;;;;;19.92;5.22;;;10.80;87.00;;;;;;5046302;28;20523;-73
2024/01/04 10:42:01;;;;;;;23.98;5.20;;;10.80;86.50;;;;;;5053530;28;20133;-73
2024/01/04 10:44:28;;;;;;;22.08;4.82;;;10.90;86.20;;;;;;5053733;28;20044;-74
2024/01/04 10:46:57;;;;;;;26.95;5.55;;;10.90;86.10;;;;;;5053133;28;20032;-75
2024/01/04 10:49:24;;;;;;;20.90;5.32;;;10.90;85.90;;;;;;5047408;28;20091;-73
2024/01/04 10:51:52;;;;;;;24.17;5.43;;;10.90;86.20;;;;;;5050672;28;20511;-75
2024/01/04 10:54:19;;;;;;;21.63;4.88;;;10.90;86.00;;;;;;5035571;28;20481;-75
2024/01/04 10:56:45;;;;;;;21.00;4.60;;;11.00;85.70;;;;;;5051686;28;20036;-74
2024/01/04 10:59:12;;;;;;;23.30;4.63;;;11.10;85.60;;;;;;5046421;28;20025;-73
2024/01/04 11:01:41;;;;;;;25.08;5.57;;;11.00;85.80;;;;;;5032288;28;20028;-73
2024/01/04 11:04:07;;;;;;;22.27;4.80;;;11.10;85.90;;;;;;5026666;28;20048;-72
2024/01/04 11:06:40;;;;;;;23.02;5.13;;;11.10;85.70;;;;;;5037940;28;20033;-74
2024/01/04 11:09:09;;;;;;;20.40;4.13;;;11.10;85.40;;;;;;5052988;28;20040;-74
2024/01/04 11:11:38;;;;;;;16.02;4.15;;;11.10;85.50;;;;;;5037243;28;20028;-74
2024/01/04 11:14:04;;;;;;;14.38;4.50;;;11.10;85.00;;;;;;5044601;28;20152;-75
2024/01/04 11:17:08;;;;;;;18.90;4.90;;;11.10;85.50;;;;;;5040995;28;20135;-75
2024/01/04 11:19:33;;;;;;;23.30;5.00;;;11.20;85.40;;;;;;4994561;28;20037;-74
2024/01/04 11:22:37;;;;;;;19.27;4.13;;;11.20;84.90;;;;;;5031440;28;20023;-74
2024/01/04 11:25:18;;;;;;;19.17;4.28;;;11.30;84.80;;;;;;5048106;28;20059;-73
2024/01/04 11:27:44;;;;;;;18.48;4.30;;;11.40;84.50;;;;;;5045073;28;20185;-73
2024/01/04 11:30:11;;;;;;;23.73;5.20;;;11.50;84.40;;;;;;5037699;28;20036;-74
2024/01/04 11:32:38;;;;;;;23.20;5.85;;;11.50;84.10;;;;;;5056879;28;20108;-74
2024/01/04 11:35:05;;;;;;;23.33;4.78;;;11.60;83.60;;;;;;5036438;28;20251;-73
2024/01/04 11:37:32;;;;;;;21.20;5.03;;;11.60;83.50;;;;;;5060570;28;20078;-73
2024/01/04 11:40:25;;;;;;;21.23;4.45;;;11.60;83.00;;;;;;5052140;28;20526;-75
2024/01/04 11:42:50;;;;;;;21.38;4.53;;;11.50;84.10;;;;;;5066580;28;20029;-76
2024/01/04 11:45:17;;;;;;;21.73;4.00;;;11.40;84.40;;;;;;5049284;28;20035;-71
2024/01/04 11:47:47;;;;;;;24.15;5.78;;;11.40;84.40;;;;;;5035756;28;20044;-75
2024/01/04 11:50:26;;;;;;;21.58;4.55;;;11.30;84.30;;;;;;5043980;28;20476;-72
2024/01/04 11:53:06;;;;;;;19.65;3.83;;;11.20;84.50;;;;;;5033624;28;20052;-74
2024/01/04 11:55:33;;;;;;;20.77;4.85;;;11.20;84.00;;;;;;5035769;28;20067;-72
2024/01/04 11:58:06;;;;;;;25.92;5.28;;;11.20;84.20;;;;;;5046437;28;20032;-72
2024/01/04 12:00:36;;;;;;;18.48;4.72;;;11.30;84.30;;;;;;5032091;28;20429;-72
2024/01/04 12:03:12;;;;;;;21.48;4.60;;;11.40;83.90;;;;;;5029070;28;20362;-73
2024/01/04 12:05:45;;;;;;;21.67;4.72;;;11.40;83.50;;;;;;5040343;28;20039;-72
2024/01/04 12:08:32;;;;;;;24.45;5.13;;;11.40;83.30;;;;;;5046291;28;20075;-73
2024/01/04 12:11:00;;;;;;;25.60;5.45;;;11.50;83.30;;;;;;5034066;28;20009;-73
2024/01/04 12:13:26;;;;;;;18.38;4.40;;;11.40;84.10;;;;;;5030336;28;20637;-75
2024/01/04 12:15:52;;;;;;;20.25;5.03;;;11.50;84.10;;;;;;5047439;28;20052;-74
2024/01/04 12:18:20;;;;;;;27.70;4.97;;;11.60;84.00;;;;;;5045765;28;20045;-72
2024/01/04 12:20:46;;;;;;;18.83;4.50;;;11.60;83.70;;;;;;5049741;28;20052;-73
2024/01/04 12:23:12;;;;;;;19.40;3.83;;;11.70;83.50;;;;;;5049233;28;20045;-74
2024/01/04 12:25:39;;;;;;;22.05;4.43;;;11.80;83.40;;;;;;5045670;28;20328;-73
2024/01/04 12:28:06;;;;;;;22.48;4.78;;;11.80;83.60;;;;;;5047757;28;20037;-74
2024/01/04 12:30:32;;;;;;;22.42;4.35;;;11.70;83.10;;;;;;5036980;28;20021;-73
2024/01/04 12:33:00;;;;;;;17.48;4.03;;;11.80;83.40;;;;;;5050479;28;20044;-72
2024/01/04 12:35:26;;;;;;;22.63;5.07;;;11.80;83.20;;;;;;5028566;28;20029;-74
2024/01/04 12:38:06;;;;;;;20.13;4.47;;;11.90;83.10;;;;;;5048524;28;20044;-72
2024/01/04 12:40:42;;;;;;;22.20;5.72;;;12.10;83.50;;;;;;5032135;28;20051;-75
2024/01/04 12:43:10;;;;;;;23.95;5.40;;;12.20;82.90;;;;;;5048498;28;20028;-74